Time;durP1;ratioP1;P1;durP2;ratioP2;P2;SDS_P1;SDS_P2;PMS_P1;PMS_P2;Temp;Humidity;BMP_temperature;BMP_pressure;BME280_temperature;BME280_humidity;BME280_pressure;Samples;Min_cycle;Max_cycle;Signal;HPM_P1;HPM_P2
2021/07/23 00:02:37;;;;;;;7.73;6.97;;;23.60;69.60;;;;;;6277527;28;20237;-60
2021/07/23 00:05:40;;;;;;;8.90;8.03;;;23.60;69.70;;;;;;6277759;28;20211;-60
2021/07/23 00:08:45;;;;;;;9.00;8.07;;;23.60;69.80;;;;;;6277645;28;20200;-60
2021/07/23 00:11:48;;;;;;;8.77;7.97;;;23.60;70.80;;;;;;6277455;28;20200;-59
2021/07/23 00:14:51;;;;;;;9.30;8.40;;;23.70;70.40;;;;;;6277301;28;20587;-61
2021/07/23 00:17:54;;;;;;;10.40;8.70;;;23.60;70.40;;;;;;6279611;28;20609;-60
2021/07/23 00:20:57;;;;;;;8.80;7.70;;;23.60;70.70;;;;;;6298060;28;20228;-58
2021/07/23 00:24:02;;;;;;;8.70;7.90;;;23.60;70.90;;;;;;6272769;28;20228;-59
2021/07/23 00:27:05;;;;;;;8.63;7.93;;;23.60;71.70;;;;;;6273315;28;20260;-59
2021/07/23 00:30:09;;;;;;;8.37;7.67;;;23.60;72.10;;;;;;6279806;28;20234;-58
2021/07/23 00:33:12;;;;;;;9.00;8.03;;;23.70;72.50;;;;;;6295960;28;20223;-59
2021/07/23 00:36:15;;;;;;;12.47;8.97;;;23.70;72.90;;;;;;6292628;28;20285;-59
2021/07/23 00:39:20;;;;;;;9.23;8.30;;;23.70;72.80;;;;;;6258300;28;20220;-59
2021/07/23 00:42:34;;;;;;;8.77;7.97;;;23.70;72.50;;;;;;6271758;28;20614;-59
2021/07/23 00:45:38;;;;;;;7.57;6.83;;;23.60;72.30;;;;;;6264161;28;20704;-59
2021/07/23 00:48:41;;;;;;;8.57;7.67;;;23.50;72.10;;;;;;6272198;28;20235;-59
2021/07/23 00:51:44;;;;;;;9.30;8.40;;;23.50;72.30;;;;;;6269835;28;20212;-66
2021/07/23 00:54:49;;;;;;;9.13;8.30;;;23.50;72.70;;;;;;6285288;28;20621;-66
2021/07/23 00:57:54;;;;;;;9.97;9.07;;;23.40;72.80;;;;;;6301192;28;20779;-59
2021/07/23 01:01:00;;;;;;;10.43;8.70;;;23.30;73.30;;;;;;6301602;28;20227;-63
2021/07/23 01:04:05;;;;;;;8.87;7.90;;;23.20;74.20;;;;;;6301064;28;20234;-63
2021/07/23 01:07:08;;;;;;;9.30;8.40;;;23.30;75.00;;;;;;6301702;28;20231;-60
2021/07/23 01:10:13;;;;;;;9.70;8.80;;;23.30;75.30;;;;;;6301003;28;20563;-60
2021/07/23 01:13:16;;;;;;;8.87;8.00;;;23.30;75.40;;;;;;6300934;28;20691;-60
2021/07/23 01:16:19;;;;;;;9.07;8.27;;;23.20;75.60;;;;;;6300759;28;20238;-59
2021/07/23 01:19:27;;;;;;;9.10;8.20;;;23.20;76.00;;;;;;6291796;28;20585;-59
2021/07/23 01:22:31;;;;;;;8.90;8.00;;;23.20;76.20;;;;;;6300555;28;20264;-59
2021/07/23 01:25:36;;;;;;;8.37;7.57;;;23.10;76.40;;;;;;6300799;28;20241;-60
2021/07/23 01:28:40;;;;;;;9.47;8.63;;;23.20;76.70;;;;;;6300417;28;20242;-60
2021/07/23 01:31:43;;;;;;;8.57;7.70;;;23.20;76.90;;;;;;6300641;28;20233;-60
2021/07/23 01:34:46;;;;;;;8.93;8.20;;;23.00;77.00;;;;;;6300379;28;20234;-59
2021/07/23 01:37:50;;;;;;;9.60;8.23;;;23.00;77.20;;;;;;6299375;28;20237;-59
2021/07/23 01:40:55;;;;;;;8.47;7.67;;;22.90;77.60;;;;;;6293516;28;20231;-59
2021/07/23 01:43:59;;;;;;;8.70;7.90;;;22.90;78.30;;;;;;6283819;28;20695;-59
2021/07/23 01:47:02;;;;;;;9.17;8.37;;;22.90;78.40;;;;;;6266803;28;20247;-59
2021/07/23 01:50:06;;;;;;;8.17;7.47;;;22.80;79.00;;;;;;6264498;28;20311;-67
2021/07/23 01:53:09;;;;;;;9.00;8.13;;;22.80;79.40;;;;;;6271745;28;20697;-64
2021/07/23 01:56:14;;;;;;;8.27;7.53;;;22.80;79.50;;;;;;6295223;28;20219;-63
2021/07/23 01:59:17;;;;;;;9.70;8.33;;;22.70;79.50;;;;;;6260984;28;20220;-64
2021/07/23 02:02:20;;;;;;;8.67;7.87;;;22.60;79.80;;;;;;6297353;28;20234;-63
2021/07/23 02:05:24;;;;;;;9.00;8.23;;;22.50;80.20;;;;;;6299784;28;20227;-63
2021/07/23 02:08:27;;;;;;;9.17;8.43;;;22.50;80.10;;;;;;6299646;28;20311;-63
2021/07/23 02:11:31;;;;;;;10.37;9.00;;;22.40;80.30;;;;;;6300031;28;20237;-63
2021/07/23 02:14:34;;;;;;;8.33;7.60;;;22.30;80.90;;;;;;6274409;28;20223;-62
2021/07/23 02:17:38;;;;;;;8.97;8.07;;;22.20;81.60;;;;;;6274610;28;20199;-63
2021/07/23 02:20:41;;;;;;;9.57;8.53;;;22.20;81.90;;;;;;6264670;28;20522;-63
2021/07/23 02:23:44;;;;;;;8.47;7.80;;;22.10;82.30;;;;;;6274388;28;20227;-63
2021/07/23 02:26:48;;;;;;;9.57;8.67;;;22.00;82.60;;;;;;6274506;28;20634;-63
2021/07/23 02:29:51;;;;;;;9.67;8.63;;;22.00;83.30;;;;;;6274363;28;20199;-63
2021/07/23 02:32:54;;;;;;;8.70;7.80;;;22.00;83.90;;;;;;6274658;28;20242;-63
2021/07/23 02:35:57;;;;;;;8.60;7.90;;;21.90;83.40;;;;;;6274208;28;20675;-62
2021/07/23 02:39:01;;;;;;;7.97;7.27;;;21.90;83.90;;;;;;6274416;28;20227;-63
2021/07/23 02:42:06;;;;;;;7.70;7.10;;;21.80;83.40;;;;;;6273791;28;20687;-63
2021/07/23 02:45:10;;;;;;;8.20;7.40;;;21.70;83.70;;;;;;6274394;28;20234;-62
2021/07/23 02:48:13;;;;;;;7.40;6.80;;;21.70;82.80;;;;;;6273784;28;20235;-64
2021/07/23 02:51:16;;;;;;;9.10;8.23;;;21.80;83.10;;;;;;6274295;28;20273;-63
2021/07/23 02:54:19;;;;;;;8.57;7.77;;;21.80;82.90;;;;;;6273861;28;20227;-63
2021/07/23 02:57:24;;;;;;;7.87;7.17;;;21.80;82.80;;;;;;6274239;28;20224;-63
2021/07/23 03:00:27;;;;;;;8.50;7.70;;;21.90;82.60;;;;;;6273734;28;20238;-63
2021/07/23 03:03:30;;;;;;;7.93;7.20;;;21.90;82.40;;;;;;6274061;28;20270;-63
2021/07/23 03:06:33;;;;;;;8.40;7.30;;;21.90;81.80;;;;;;6274159;28;20235;-64
2021/07/23 03:09:36;;;;;;;7.83;7.13;;;21.90;81.90;;;;;;6273777;28;20574;-63
2021/07/23 03:12:41;;;;;;;7.73;7.13;;;21.90;81.80;;;;;;6273768;28;20561;-63
2021/07/23 03:15:44;;;;;;;8.27;7.57;;;21.80;81.80;;;;;;6273782;28;20239;-62
2021/07/23 03:18:47;;;;;;;8.50;7.80;;;21.90;82.30;;;;;;6274331;28;20259;-62
2021/07/23 03:21:50;;;;;;;7.93;7.33;;;21.80;82.80;;;;;;6273490;28;20239;-61
2021/07/23 03:24:55;;;;;;;8.40;7.77;;;21.80;82.90;;;;;;6268857;28;20239;-63
2021/07/23 03:27:59;;;;;;;8.10;7.40;;;21.80;82.30;;;;;;6273710;28;20227;-63
2021/07/23 03:31:02;;;;;;;8.80;8.10;;;21.70;82.20;;;;;;6273914;28;20289;-63
2021/07/23 03:34:06;;;;;;;8.27;7.50;;;21.70;82.20;;;;;;6273513;28;20237;-63
2021/07/23 03:37:09;;;;;;;8.90;8.00;;;21.70;82.20;;;;;;6273699;28;20232;-63
2021/07/23 03:40:12;;;;;;;7.40;6.70;;;21.60;82.60;;;;;;6273498;28;20231;-63
2021/07/23 03:43:16;;;;;;;8.33;7.60;;;21.60;82.80;;;;;;6273715;28;20250;-63
2021/07/23 03:46:19;;;;;;;8.60;7.80;;;21.50;83.00;;;;;;6273468;28;20239;-63
2021/07/23 03:49:23;;;;;;;8.53;7.73;;;21.50;83.00;;;;;;6273061;28;20243;-63
2021/07/23 03:52:26;;;;;;;8.83;7.40;;;21.50;82.80;;;;;;6273281;28;20242;-63
2021/07/23 03:55:29;;;;;;;8.23;7.53;;;21.50;82.60;;;;;;6273524;28;20231;-63
2021/07/23 03:58:33;;;;;;;7.90;7.10;;;21.40;82.50;;;;;;6273420;28;20240;-63
2021/07/23 04:01:39;;;;;;;8.60;7.67;;;21.40;83.10;;;;;;6275638;28;20227;-63
2021/07/23 04:04:42;;;;;;;10.07;7.47;;;21.50;83.70;;;;;;6277936;28;20573;-64
2021/07/23 04:07:45;;;;;;;9.10;8.40;;;21.50;83.80;;;;;;6277449;28;20227;-63
2021/07/23 04:10:49;;;;;;;9.27;7.67;;;21.60;83.40;;;;;;6277537;28;20227;-63
2021/07/23 04:13:53;;;;;;;8.67;7.83;;;21.60;83.40;;;;;;6276912;28;20242;-63
2021/07/23 04:16:56;;;;;;;8.63;7.83;;;21.50;83.30;;;;;;6277515;28;20761;-62
2021/07/23 04:20:00;;;;;;;8.10;7.30;;;21.60;83.40;;;;;;6277319;28;20322;-63
2021/07/23 04:23:03;;;;;;;7.83;6.80;;;21.70;83.20;;;;;;6277370;28;20292;-65
2021/07/23 04:26:08;;;;;;;7.27;6.60;;;21.70;82.80;;;;;;6275951;28;20672;-64
2021/07/23 04:29:13;;;;;;;8.97;8.07;;;21.80;82.90;;;;;;6277105;28;20718;-66
2021/07/23 04:32:16;;;;;;;8.77;8.07;;;21.80;82.60;;;;;;6267868;28;20618;-64
2021/07/23 04:35:19;;;;;;;10.37;8.00;;;21.80;82.90;;;;;;6277089;28;20246;-64
2021/07/23 04:38:22;;;;;;;9.00;8.20;;;21.90;83.00;;;;;;6276978;28;20235;-63
2021/07/23 04:41:25;;;;;;;8.40;7.60;;;21.90;83.20;;;;;;6276543;28;20238;-64
2021/07/23 04:44:33;;;;;;;8.80;7.90;;;21.90;83.50;;;;;;6276551;28;20223;-64
2021/07/23 04:47:36;;;;;;;8.50;7.77;;;21.90;83.40;;;;;;6276580;28;20231;-63
2021/07/23 04:50:39;;;;;;;8.10;7.40;;;21.90;83.00;;;;;;6301960;28;20204;-63
2021/07/23 04:53:42;;;;;;;10.13;8.83;;;22.00;82.10;;;;;;6301132;28;20219;-63
2021/07/23 04:56:48;;;;;;;8.87;7.70;;;21.90;81.90;;;;;;6301383;28;20664;-63
2021/07/23 04:59:52;;;;;;;8.73;7.83;;;22.00;82.40;;;;;;6301166;28;20191;-64
2021/07/23 05:02:57;;;;;;;8.10;7.50;;;22.10;82.60;;;;;;6301257;28;20352;-63
2021/07/23 05:06:01;;;;;;;9.33;8.50;;;22.20;82.10;;;;;;6301387;28;20234;-64
2021/07/23 05:09:05;;;;;;;9.20;8.30;;;22.30;82.00;;;;;;6301075;28;20607;-64
2021/07/23 05:12:09;;;;;;;9.67;7.97;;;22.50;82.20;;;;;;6299452;28;20573;-64
2021/07/23 05:15:14;;;;;;;8.83;8.10;;;22.70;81.90;;;;;;6301372;28;20223;-64
2021/07/23 05:18:18;;;;;;;8.20;7.37;;;22.80;81.50;;;;;;6301101;28;20222;-64
2021/07/23 05:21:21;;;;;;;8.73;7.83;;;23.10;81.10;;;;;;6301116;28;20656;-64
2021/07/23 05:24:24;;;;;;;9.00;8.27;;;23.20;80.60;;;;;;6300714;28;20672;-64
2021/07/23 05:27:29;;;;;;;8.73;7.23;;;23.20;78.90;;;;;;6300626;28;20223;-64
2021/07/23 05:30:34;;;;;;;10.90;8.73;;;23.30;78.30;;;;;;6300888;28;20644;-63
2021/07/23 05:33:37;;;;;;;9.37;8.47;;;23.30;78.50;;;;;;6295689;28;20245;-63
2021/07/23 05:36:40;;;;;;;8.87;8.17;;;23.30;78.00;;;;;;6300717;28;20676;-63
2021/07/23 05:39:43;;;;;;;8.43;7.73;;;23.50;77.50;;;;;;6300443;28;20227;-63
2021/07/23 05:42:46;;;;;;;8.17;7.37;;;23.70;77.00;;;;;;6300669;28;20237;-64
2021/07/23 05:45:51;;;;;;;9.03;8.10;;;23.90;76.40;;;;;;6300058;28;20292;-64
2021/07/23 05:48:54;;;;;;;8.93;7.80;;;24.00;75.90;;;;;;6299998;28;20799;-64
2021/07/23 05:51:57;;;;;;;8.70;7.90;;;24.20;75.30;;;;;;6300301;28;20235;-64
2021/07/23 05:55:00;;;;;;;9.00;8.07;;;24.40;74.60;;;;;;6300314;28;20238;-63
2021/07/23 05:58:04;;;;;;;9.53;8.10;;;24.60;74.20;;;;;;6299710;28;20312;-63
2021/07/23 06:01:09;;;;;;;8.27;7.00;;;24.70;72.20;;;;;;6300020;28;20251;-64
2021/07/23 06:04:12;;;;;;;8.83;7.03;;;24.80;72.00;;;;;;6299846;28;20376;-63
2021/07/23 06:07:15;;;;;;;8.47;7.80;;;25.10;71.90;;;;;;6299747;28;20226;-64
2021/07/23 06:10:19;;;;;;;8.57;7.87;;;25.20;70.40;;;;;;6300100;28;20223;-63
2021/07/23 06:13:23;;;;;;;7.60;7.00;;;25.40;69.10;;;;;;6299399;28;20234;-64
2021/07/23 06:16:27;;;;;;;8.73;7.67;;;25.60;68.10;;;;;;6299516;28;20222;-64
2021/07/23 06:19:30;;;;;;;9.23;8.30;;;25.80;67.50;;;;;;6299399;28;20713;-63
2021/07/23 06:22:34;;;;;;;8.77;7.87;;;26.00;66.90;;;;;;6299589;28;20258;-63
2021/07/23 06:25:37;;;;;;;9.60;8.27;;;26.40;66.00;;;;;;6298950;28;20236;-63
2021/07/23 06:28:40;;;;;;;9.80;8.90;;;26.80;64.50;;;;;;6299319;28;20226;-64
2021/07/23 06:31:45;;;;;;;9.20;6.87;;;27.20;62.60;;;;;;6298942;28;20249;-64
2021/07/23 06:34:48;;;;;;;8.30;7.60;;;27.60;59.80;;;;;;6299550;28;20233;-64
2021/07/23 06:37:51;;;;;;;8.17;7.47;;;28.10;57.70;;;;;;6298954;28;20226;-64
2021/07/23 06:40:54;;;;;;;8.97;8.00;;;28.50;55.20;;;;;;6299398;28;20233;-64
2021/07/23 06:43:58;;;;;;;8.10;7.40;;;28.20;53.80;;;;;;6298757;28;20237;-64
2021/07/23 06:47:03;;;;;;;7.70;6.90;;;28.50;53.00;;;;;;6298742;28;20707;-64
2021/07/23 06:50:07;;;;;;;7.57;6.87;;;28.80;51.70;;;;;;6299207;28;20620;-64
2021/07/23 06:53:10;;;;;;;7.53;6.80;;;29.00;50.70;;;;;;6298614;28;20234;-64
2021/07/23 06:56:14;;;;;;;7.13;6.40;;;29.40;49.40;;;;;;6299167;28;20608;-65
2021/07/23 06:59:18;;;;;;;7.93;7.23;;;30.10;47.50;;;;;;6298463;28;20248;-65
2021/07/23 07:02:22;;;;;;;8.87;8.07;;;30.10;47.20;;;;;;6299138;28;20565;-64
2021/07/23 07:05:25;;;;;;;8.63;6.83;;;29.80;47.70;;;;;;6298618;28;20222;-65
2021/07/23 07:08:28;;;;;;;7.50;6.77;;;30.10;47.10;;;;;;6298796;28;20588;-65
2021/07/23 07:11:36;;;;;;;8.05;7.22;;;30.50;46.10;;;;;;6298509;28;20241;-64
2021/07/23 07:14:39;;;;;;;7.75;7.05;;;30.30;45.60;;;;;;6298931;28;20563;-64
2021/07/23 07:17:45;;;;;;;9.43;6.47;;;31.10;45.40;;;;;;6298849;28;20202;-63
2021/07/23 07:20:48;;;;;;;8.82;7.40;;;32.20;43.60;;;;;;6297363;28;20516;-63
2021/07/23 07:23:51;;;;;;;8.00;6.00;;;32.90;41.50;;;;;;6298573;28;20226;-65
2021/07/23 07:26:54;;;;;;;8.73;6.90;;;33.50;40.70;;;;;;6298151;28;20222;-64
2021/07/23 07:29:57;;;;;;;8.13;7.40;;;33.90;39.80;;;;;;6298713;28;20222;-64
2021/07/23 07:33:02;;;;;;;9.35;7.43;;;34.00;40.00;;;;;;6298240;28;20547;-65
2021/07/23 07:36:06;;;;;;;7.88;7.18;;;34.60;39.20;;;;;;6300408;28;20231;-65
2021/07/23 07:39:10;;;;;;;8.15;6.95;;;35.30;38.10;;;;;;6302847;28;20222;-64
2021/07/23 07:42:16;;;;;;;7.47;6.78;;;35.60;37.10;;;;;;6293660;28;20240;-65
2021/07/23 07:45:19;;;;;;;7.88;7.18;;;35.90;36.60;;;;;;6302393;28;20241;-65
2021/07/23 07:48:24;;;;;;;6.90;6.40;;;36.10;36.40;;;;;;6303187;28;20232;-65
2021/07/23 07:51:27;;;;;;;7.28;6.57;;;36.70;35.10;;;;;;6302862;28;20753;-65
2021/07/23 07:54:31;;;;;;;8.15;7.35;;;37.20;34.40;;;;;;6303024;28;20246;-66
2021/07/23 07:57:35;;;;;;;8.13;7.32;;;37.60;34.10;;;;;;6302648;28;20683;-65
2021/07/23 08:00:38;;;;;;;7.47;6.88;;;38.10;33.60;;;;;;6292663;28;20234;-65
2021/07/23 08:03:42;;;;;;;8.35;7.55;;;37.70;33.40;;;;;;6279036;28;20230;-65
2021/07/23 08:06:48;;;;;;;8.25;7.55;;;37.70;33.70;;;;;;6284884;28;20767;-65
2021/07/23 08:09:52;;;;;;;7.97;7.32;;;38.40;32.90;;;;;;6277428;28;20667;-67
2021/07/23 08:12:59;;;;;;;7.32;6.75;;;39.00;32.40;;;;;;6298321;28;20230;-65
2021/07/23 08:16:02;;;;;;;7.40;6.70;;;39.00;31.90;;;;;;6297612;28;20231;-65
2021/07/23 08:19:07;;;;;;;11.32;8.27;;;38.70;32.40;;;;;;6284376;28;20222;-65
2021/07/23 08:22:11;;;;;;;8.02;7.30;;;38.50;32.80;;;;;;6277470;28;20235;-64
2021/07/23 08:25:14;;;;;;;7.60;7.00;;;38.40;32.40;;;;;;6276719;28;20230;-66
2021/07/23 08:28:17;;;;;;;8.23;7.53;;;37.30;33.10;;;;;;6284074;28;20256;-65
2021/07/23 08:31:21;;;;;;;8.45;7.75;;;37.00;33.70;;;;;;6276792;28;20671;-66
2021/07/23 08:34:26;;;;;;;9.13;8.32;;;36.40;34.90;;;;;;6277103;28;20231;-65
2021/07/23 08:37:29;;;;;;;8.32;7.63;;;35.80;35.50;;;;;;6277066;28;20239;-65
2021/07/23 08:40:33;;;;;;;9.90;9.00;;;35.30;36.20;;;;;;6277136;28;20670;-64
2021/07/23 08:43:36;;;;;;;10.10;9.10;;;34.80;36.80;;;;;;6281362;28;20677;-63
2021/07/23 08:46:39;;;;;;;9.18;8.38;;;34.50;37.80;;;;;;6271706;28;20241;-67
2021/07/23 08:49:44;;;;;;;10.15;8.02;;;34.40;38.20;;;;;;6275990;28;20727;-64
2021/07/23 08:52:50;;;;;;;9.70;8.80;;;34.10;38.40;;;;;;6276680;28;20231;-63
2021/07/23 08:55:53;;;;;;;9.95;9.05;;;33.90;38.90;;;;;;6276191;28;20227;-64
2021/07/23 08:58:56;;;;;;;9.52;8.60;;;33.90;39.00;;;;;;6276468;28;20235;-67
2021/07/23 09:02:00;;;;;;;8.50;7.75;;;33.90;39.20;;;;;;6275612;28;20234;-69
2021/07/23 09:05:14;;;;;;;8.93;8.23;;;33.70;39.80;;;;;;6274539;28;20377;-67
2021/07/23 09:08:19;;;;;;;9.57;8.77;;;33.60;40.50;;;;;;6273327;28;20219;-66
2021/07/23 09:11:30;;;;;;;10.68;9.73;;;33.60;40.00;;;;;;6275320;28;20230;-66
2021/07/23 09:14:36;;;;;;;9.05;8.15;;;32.80;40.90;;;;;;6275205;28;20598;-67
2021/07/23 09:17:41;;;;;;;10.45;9.55;;;32.80;41.60;;;;;;6267411;28;20649;-67
2021/07/23 09:20:54;;;;;;;9.88;9.13;;;32.90;41.80;;;;;;6275713;28;20204;-67
2021/07/23 09:23:57;;;;;;;9.23;8.40;;;33.10;42.10;;;;;;6270594;28;20239;-66
2021/07/23 09:27:01;;;;;;;10.30;9.40;;;33.10;42.20;;;;;;6278466;28;20669;-66
2021/07/23 09:30:07;;;;;;;10.48;9.55;;;33.20;41.80;;;;;;6294366;28;20703;-66
2021/07/23 09:33:10;;;;;;;9.60;8.80;;;33.40;41.80;;;;;;6264408;28;20232;-67
2021/07/23 09:36:15;;;;;;;10.65;9.68;;;32.40;42.80;;;;;;6281639;28;20285;-67
2021/07/23 09:39:19;;;;;;;10.02;9.13;;;32.40;43.50;;;;;;6263411;28;20226;-67
2021/07/23 09:42:22;;;;;;;10.70;9.63;;;32.60;43.10;;;;;;6274536;28;20231;-64
2021/07/23 09:45:30;;;;;;;10.35;9.35;;;32.90;44.10;;;;;;6272467;28;20223;-62
2021/07/23 09:48:33;;;;;;;12.25;11.05;;;32.80;43.20;;;;;;6274483;28;20309;-63
2021/07/23 09:51:38;;;;;;;10.05;9.25;;;32.90;43.40;;;;;;6270434;28;20234;-67
2021/07/23 09:54:42;;;;;;;15.45;10.40;;;32.30;44.00;;;;;;6274282;28;20227;-63
2021/07/23 09:57:50;;;;;;;11.57;10.30;;;32.20;45.00;;;;;;6271905;28;20219;-67
2021/07/23 10:00:56;;;;;;;10.75;9.85;;;32.40;45.00;;;;;;6274066;28;20620;-64
2021/07/23 10:04:06;;;;;;;11.25;10.15;;;32.20;44.80;;;;;;6274927;28;20231;-67
2021/07/23 10:07:16;;;;;;;10.75;9.75;;;32.30;44.90;;;;;;6274508;28;20246;-67
2021/07/23 10:10:19;;;;;;;10.20;9.40;;;32.10;45.30;;;;;;6274848;28;20723;-68
2021/07/23 10:13:27;;;;;;;11.85;10.68;;;31.80;45.40;;;;;;6273827;28;20226;-65
2021/07/23 10:16:32;;;;;;;11.98;10.77;;;31.80;46.70;;;;;;6274576;28;20563;-66
2021/07/23 10:19:37;;;;;;;13.68;12.38;;;32.00;46.70;;;;;;6274164;28;20232;-68
2021/07/23 10:22:43;;;;;;;13.35;10.95;;;32.20;46.40;;;;;;6274569;28;20250;-68
2021/07/23 10:25:50;;;;;;;10.43;9.52;;;32.30;45.80;;;;;;6274106;28;20688;-67
2021/07/23 10:29:05;;;;;;;10.35;9.55;;;32.10;45.40;;;;;;6274474;28;20226;-69
2021/07/23 10:32:30;;;;;;;10.65;9.73;;;32.00;46.10;;;;;;6273959;28;20239;-68
2021/07/23 10:35:35;;;;;;;11.02;10.02;;;31.80;46.60;;;;;;6274183;28;20349;-67
2021/07/23 10:38:40;;;;;;;12.93;11.73;;;31.70;46.80;;;;;;6273552;28;20561;-66
2021/07/23 10:42:08;;;;;;;11.98;10.88;;;31.50;47.20;;;;;;6275170;28;20211;-66
2021/07/23 10:45:14;;;;;;;11.73;10.65;;;31.10;47.60;;;;;;6298599;28;20225;-66
2021/07/23 10:48:46;;;;;;;12.07;11.07;;;31.30;48.00;;;;;;6298888;28;20226;-66
2021/07/23 10:51:50;;;;;;;12.27;11.07;;;31.30;47.90;;;;;;6298968;28;20229;-68
2021/07/23 10:55:19;;;;;;;13.13;11.95;;;31.50;47.60;;;;;;6284485;28;20702;-67
2021/07/23 10:58:43;;;;;;;13.10;11.90;;;31.30;47.50;;;;;;6291038;28;20222;-63
2021/07/23 11:01:50;;;;;;;12.00;10.85;;;31.30;47.60;;;;;;6291183;28;20226;-66
2021/07/23 11:05:04;;;;;;;12.07;11.00;;;31.60;48.20;;;;;;6298877;28;20574;-66
2021/07/23 11:08:08;;;;;;;11.80;10.60;;;31.80;46.70;;;;;;6273410;28;20564;-66
2021/07/23 11:11:13;;;;;;;11.80;10.70;;;31.90;47.50;;;;;;6282228;28;20222;-67
2021/07/23 11:14:18;;;;;;;11.63;10.63;;;31.70;47.90;;;;;;6302185;28;20241;-68
2021/07/23 11:17:22;;;;;;;12.25;11.25;;;31.30;48.80;;;;;;6301529;28;20684;-68
2021/07/23 11:20:33;;;;;;;12.95;11.85;;;31.10;49.60;;;;;;6301145;28;20226;-68
2021/07/23 11:23:36;;;;;;;12.93;11.77;;;30.90;49.90;;;;;;6301383;28;20230;-68
2021/07/23 11:27:01;;;;;;;12.90;11.80;;;30.80;50.00;;;;;;6275886;28;20727;-68
2021/07/23 11:30:13;;;;;;;12.07;11.10;;;30.40;51.30;;;;;;6277540;28;20226;-69
2021/07/23 11:33:16;;;;;;;12.80;11.80;;;30.70;50.80;;;;;;6278190;28;20227;-68
2021/07/23 11:36:34;;;;;;;13.25;11.77;;;30.60;50.20;;;;;;6278736;28;20245;-68
2021/07/23 11:39:49;;;;;;;12.95;11.85;;;30.70;50.40;;;;;;6286395;28;20574;-68
2021/07/23 11:42:55;;;;;;;12.40;11.40;;;30.60;50.20;;;;;;6292748;28;20235;-68
2021/07/23 11:45:58;;;;;;;12.68;11.23;;;30.60;50.50;;;;;;6277785;28;20226;-69
2021/07/23 11:49:02;;;;;;;13.23;12.05;;;30.80;50.10;;;;;;6289431;28;20687;-68
2021/07/23 11:52:05;;;;;;;13.53;12.33;;;30.20;50.90;;;;;;6302536;28;20238;-68
2021/07/23 11:55:10;;;;;;;12.90;11.60;;;29.90;51.70;;;;;;6302928;28;20236;-68
2021/07/23 11:58:26;;;;;;;13.30;12.10;;;29.60;53.00;;;;;;6292568;28;20254;-68
2021/07/23 12:01:34;;;;;;;13.77;12.37;;;29.40;53.60;;;;;;6303014;28;20710;-68
2021/07/23 12:04:41;;;;;;;13.90;12.60;;;29.00;54.60;;;;;;6302515;28;20685;-68
2021/07/23 12:07:56;;;;;;;13.13;11.90;;;28.40;55.60;;;;;;6302937;28;20237;-68
2021/07/23 12:11:00;;;;;;;13.20;12.00;;;28.20;56.50;;;;;;6302301;28;20218;-68
2021/07/23 12:14:08;;;;;;;12.77;11.67;;;28.10;56.70;;;;;;6281984;28;20242;-68
2021/07/23 12:17:14;;;;;;;12.83;11.70;;;27.60;57.80;;;;;;6277315;28;20234;-68
2021/07/23 12:20:27;;;;;;;13.03;11.87;;;27.70;58.30;;;;;;6277086;28;20255;-68
2021/07/23 12:23:31;;;;;;;13.80;12.40;;;27.70;59.00;;;;;;6276281;28;20246;-62
2021/07/23 12:26:37;;;;;;;13.50;12.20;;;28.00;58.60;;;;;;6277132;28;20241;-61
2021/07/23 12:29:42;;;;;;;13.70;12.50;;;28.50;58.40;;;;;;6275868;28;20214;-65
2021/07/23 12:32:45;;;;;;;12.90;11.63;;;28.90;57.40;;;;;;6275780;28;20211;-65
2021/07/23 12:35:52;;;;;;;13.77;12.47;;;29.20;56.40;;;;;;6277786;28;20637;-62
2021/07/23 12:39:02;;;;;;;12.40;11.30;;;29.50;55.50;;;;;;6301850;28;20497;-62
2021/07/23 12:42:17;;;;;;;12.70;11.50;;;29.60;55.80;;;;;;6301260;28;20231;-62
2021/07/23 12:45:35;;;;;;;13.27;12.10;;;29.40;55.60;;;;;;6301517;28;20226;-65
2021/07/23 12:48:38;;;;;;;14.53;12.03;;;29.20;56.50;;;;;;6301251;28;20230;-67
2021/07/23 12:51:42;;;;;;;12.50;11.17;;;29.20;57.30;;;;;;6301516;28;20725;-67
2021/07/23 12:54:47;;;;;;;14.07;12.77;;;29.20;58.20;;;;;;6301167;28;20237;-65
2021/07/23 12:57:50;;;;;;;13.70;12.50;;;28.70;58.20;;;;;;6301439;28;20234;-69
2021/07/23 13:00:54;;;;;;;12.40;11.27;;;28.60;59.50;;;;;;6296362;28;20612;-64
2021/07/23 13:03:58;;;;;;;13.90;12.50;;;28.60;58.90;;;;;;6301334;28;20279;-68
2021/07/23 13:07:01;;;;;;;13.07;11.87;;;28.60;59.80;;;;;;6300888;28;20715;-65
2021/07/23 13:10:05;;;;;;;14.13;12.93;;;28.60;59.40;;;;;;6301312;28;20237;-66
2021/07/23 13:13:08;;;;;;;14.77;13.30;;;28.60;59.30;;;;;;6300386;28;20722;-65
2021/07/23 13:16:14;;;;;;;13.53;12.00;;;28.60;59.40;;;;;;6301120;28;20602;-64
2021/07/23 13:19:18;;;;;;;12.93;11.80;;;28.60;58.90;;;;;;6287084;28;20237;-64
2021/07/23 13:22:21;;;;;;;14.37;12.97;;;28.50;60.10;;;;;;6275804;28;20239;-66
2021/07/23 13:25:24;;;;;;;14.53;13.30;;;28.70;60.10;;;;;;6275690;28;20284;-66
2021/07/23 13:28:27;;;;;;;14.40;13.10;;;28.80;59.80;;;;;;6275386;28;20258;-66
2021/07/23 13:31:32;;;;;;;13.93;12.70;;;28.90;59.30;;;;;;6275935;28;20231;-67
2021/07/23 13:34:35;;;;;;;12.83;11.70;;;29.10;59.60;;;;;;6274793;28;20274;-67
2021/07/23 13:37:44;;;;;;;13.43;12.13;;;28.90;58.70;;;;;;6275746;28;20223;-67
2021/07/23 13:40:51;;;;;;;13.43;12.33;;;28.90;58.80;;;;;;6275759;28;20242;-68
2021/07/23 13:43:54;;;;;;;14.60;13.30;;;28.80;58.50;;;;;;6275169;28;20698;-67
2021/07/23 13:46:59;;;;;;;12.57;11.37;;;28.60;58.40;;;;;;6274746;28;20252;-67
2021/07/23 13:50:02;;;;;;;13.03;11.83;;;28.60;58.30;;;;;;6275334;28;20692;-67
2021/07/23 13:53:05;;;;;;;12.60;11.40;;;28.70;58.40;;;;;;6275329;28;20687;-67
2021/07/23 13:56:09;;;;;;;13.00;11.70;;;28.90;58.30;;;;;;6275199;28;20230;-66
2021/07/23 13:59:12;;;;;;;11.90;10.80;;;29.00;57.30;;;;;;6274857;28;20688;-63
2021/07/23 14:02:16;;;;;;;11.57;10.57;;;29.00;57.20;;;;;;6275013;28;20575;-66
2021/07/23 14:05:20;;;;;;;10.43;9.60;;;29.00;57.00;;;;;;6270354;28;20399;-63
2021/07/23 14:08:23;;;;;;;11.17;10.20;;;28.90;55.00;;;;;;6297540;28;20234;-63
2021/07/23 14:11:27;;;;;;;9.63;8.70;;;28.60;54.10;;;;;;6299112;28;20229;-65
2021/07/23 14:14:30;;;;;;;9.23;8.33;;;28.70;53.30;;;;;;6275848;28;20275;-66
2021/07/23 14:17:36;;;;;;;8.33;7.53;;;28.70;52.40;;;;;;6274828;28;20235;-66
2021/07/23 14:20:39;;;;;;;7.30;6.57;;;28.50;48.40;;;;;;6274507;28;20222;-62
2021/07/23 14:23:42;;;;;;;7.20;6.50;;;28.50;47.70;;;;;;6274601;28;20231;-64
2021/07/23 14:26:45;;;;;;;7.70;6.47;;;28.50;47.10;;;;;;6274335;28;20210;-65
2021/07/23 14:29:49;;;;;;;6.97;6.27;;;28.40;48.30;;;;;;6276890;28;20668;-65
2021/07/23 14:32:53;;;;;;;7.90;6.97;;;28.40;49.00;;;;;;6273921;28;20321;-65
2021/07/23 14:35:56;;;;;;;6.70;6.10;;;28.30;48.50;;;;;;6273168;28;20203;-66
2021/07/23 14:39:00;;;;;;;6.20;5.60;;;28.30;47.70;;;;;;6273154;28;20230;-65
2021/07/23 14:42:04;;;;;;;6.03;5.43;;;28.00;48.10;;;;;;6273762;28;20235;-65
2021/07/23 14:45:08;;;;;;;7.60;6.90;;;27.90;50.30;;;;;;6273384;28;20235;-66
2021/07/23 14:48:13;;;;;;;7.50;6.80;;;28.00;51.00;;;;;;6273463;28;20238;-65
2021/07/23 14:51:17;;;;;;;7.60;6.90;;;27.60;53.70;;;;;;6273762;28;20231;-65
2021/07/23 14:54:20;;;;;;;7.00;6.30;;;27.40;54.60;;;;;;6274236;28;20222;-65
2021/07/23 14:57:23;;;;;;;7.13;6.40;;;27.40;54.90;;;;;;6273638;28;20618;-65
2021/07/23 15:00:27;;;;;;;6.90;6.30;;;27.30;54.50;;;;;;6274181;28;20226;-65
2021/07/23 15:03:31;;;;;;;9.60;6.23;;;27.10;55.00;;;;;;6273869;28;20239;-65
2021/07/23 15:06:34;;;;;;;6.03;5.53;;;27.00;55.10;;;;;;6274107;28;20242;-65
2021/07/23 15:09:37;;;;;;;7.20;6.53;;;27.00;55.20;;;;;;6273726;28;20313;-65
2021/07/23 15:12:41;;;;;;;6.70;6.00;;;26.80;55.10;;;;;;6273049;28;20254;-65
2021/07/23 15:15:44;;;;;;;7.00;6.30;;;26.60;55.20;;;;;;6274269;28;20238;-64
2021/07/23 15:18:51;;;;;;;6.87;5.57;;;26.60;55.80;;;;;;6273368;28;20230;-66
2021/07/23 15:21:57;;;;;;;6.63;6.03;;;26.50;56.30;;;;;;6274164;28;20241;-65
2021/07/23 15:25:00;;;;;;;6.23;5.63;;;26.50;56.60;;;;;;6273742;28;20246;-65
2021/07/23 15:28:05;;;;;;;6.67;6.07;;;26.50;56.00;;;;;;6273393;28;20245;-66
2021/07/23 15:31:09;;;;;;;6.20;5.60;;;26.70;56.10;;;;;;6273053;28;20265;-67
2021/07/23 15:34:14;;;;;;;8.67;4.97;;;27.10;55.20;;;;;;6273656;28;20230;-66
2021/07/23 15:37:17;;;;;;;6.37;5.77;;;27.20;54.40;;;;;;6273008;28;20233;-66
2021/07/23 15:40:20;;;;;;;9.37;5.80;;;27.30;53.80;;;;;;6273140;28;20227;-66
2021/07/23 15:43:24;;;;;;;6.73;6.03;;;27.40;53.90;;;;;;6273021;28;20231;-66
2021/07/23 15:46:27;;;;;;;6.10;5.40;;;27.50;53.30;;;;;;6288090;28;20244;-66
2021/07/23 15:49:31;;;;;;;6.87;6.17;;;27.40;53.20;;;;;;6281853;28;20239;-66
2021/07/23 15:52:34;;;;;;;6.63;5.97;;;27.40;53.20;;;;;;6272711;28;20706;-68
2021/07/23 15:55:37;;;;;;;7.00;5.23;;;27.60;53.50;;;;;;6273127;28;20231;-66